• Join FlightAware (Why Join?)
  • Login
  • US Flag 
10:34PM EST


 

Airport Tracker/Info


-or-


 

Live Flight TrackerFlight Track Log ✈ SWA2147 ✈ 04-May-2014 ✈ KSJC - KLAX

Flight Track Log - Related Links

Times and Time Zones

All times are in EDT time to prevent confusion due to time zone crossing. See the SWA2147 flight status page for this flight to view local times or setup timezone preferences in your user account.

Time Position Orientation Groundspeed Altitude Reporting Facility
EDT Latitude Longitude Course Direction KTS MPH feet Rate Location/Type
03:27PM 37.3833 -121.9500 15° North 152 175 1,600  Level Northern Cal TRACON
03:28PM 37.4333 -121.9333 15° North 239 275 3,800 2,750 Climbing Northern Cal TRACON
03:29PM 37.3833 -121.8833 142° Southeast 250 288 7,100 3,350 Climbing Northern Cal TRACON
03:30PM 37.3333 -121.8000 127° Southeast 291 335 10,500 3,091 Climbing Northern Cal TRACON
03:31PM 37.2558 -121.7200 141° Southeast 324 373 13,900 3,090 Climbing Oakland Center
03:32PM 37.1822 -121.6369 138° Southeast 349 402 17,400 3,073 Climbing Oakland Center
03:33PM 37.1047 -121.5506 138° Southeast 365 420 20,200 2,780 Climbing Oakland Center
03:34PM 37.0219 -121.4669 141° Southeast 380 437 23,100 2,516 Climbing Oakland Center
03:35PM 36.9411 -121.3758 138° Southeast 387 445 25,400 2,195 Climbing Oakland Center
03:36PM 36.8556 -121.2800 138° Southeast 408 470 27,600 2,098 Climbing Oakland Center
03:37PM 36.7697 -121.1903 140° Southeast 412 474 29,700 1,951 Climbing Oakland Center
03:38PM 36.6617 -121.0719 139° Southeast 429 494 31,600 2,146 Climbing Oakland Center
03:39PM 36.5722 -120.9714 138° Southeast 434 499 34,100 2,000 Climbing Oakland Center
03:40PM 36.4850 -120.8786 139° Southeast 419 482 35,700 1,366 Climbing Oakland Center
03:41PM 36.3964 -120.7786 138° Southeast 426 490 36,900 634 Climbing Oakland Center
03:42PM 36.3050 -120.6803 139° Southeast 429 494 37,000 49 Climbing Oakland Center
03:43PM 36.2139 -120.5842 140° Southeast 430 495 37,000  Level Oakland Center
03:44PM 36.1239 -120.4864 139° Southeast 430 495 37,000  Level Oakland Center
03:45PM 36.0331 -120.3897 139° Southeast 429 494 37,000  Level Oakland Center
03:46PM 35.9433 -120.2939 139° Southeast 429 494 37,000  Level Oakland Center
03:47PM 35.8361 -120.1786 139° Southeast 428 493 37,000  Level Oakland Center
03:48PM 35.7461 -120.0839 139° Southeast 427 491 37,000  Level Oakland Center
03:49PM 35.6558 -119.9883 139° Southeast 427 491 37,000  Level Oakland Center
03:50PM 35.5606 -119.9044 144° Southeast 422 486 37,000  Level Los Angeles Center
03:51PM 35.4642 -119.8211 145° Southeast 421 484 37,000  Level Los Angeles Center
03:52PM 35.3686 -119.7372 144° Southeast 420 483 37,000  Level Los Angeles Center
03:53PM 35.2731 -119.6567 145° Southeast 419 482 37,000  Level Los Angeles Center
03:54PM 35.1781 -119.5739 145° Southeast 419 482 37,000 -581 Level Los Angeles Center
03:55PM 35.0658 -119.4772 145° Southeast 414 476 35,800 -1,839 Descending Los Angeles Center
03:57PM 34.9728 -119.3983 145° Southeast 407 468 33,200 -2,516 Descending Los Angeles Center
03:58PM 34.8756 -119.3172 146° Southeast 419 482 30,600 -2,275 Descending Los Angeles Center
04:00PM 34.6908 -119.1603 145° Southeast 404 465 26,300 -2,310 Descending Oakland Center
04:01PM 34.5869 -119.0733 145° Southeast 402 463 23,400 -2,465 Descending Los Angeles Center
04:02PM 34.5011 -119.0008 145° Southeast 374 430 21,000 -2,371 Descending Los Angeles Center
04:03PM 34.4153 -118.9297 146° Southeast 368 423 18,500 -2,323 Descending Los Angeles Center
04:04PM 34.3278 -118.8694 150° Southeast 361 415 16,200 -2,226 Descending Los Angeles Center
04:05PM 34.2356 -118.8367 164° South 348 400 13,900 -2,304 Descending Los Angeles Center
04:06PM 34.1281 -118.7972 163° South 336 387 11,400 -1,872 Descending Los Angeles Center
04:07PM 34.0442 -118.7492 155° Southeast 322 371 10,000 -1,016 Descending Los Angeles Center
04:08PM 34.0281 -118.6467 101° East 311 358 9,300 -1,065 Descending Los Angeles Center
04:09PM 34.0181 -118.5367 96° East 308 354 7,800 -1,113 Descending Los Angeles Center
04:10PM 34.0100 -118.4564 97° East 293 337 7,000 -677 Descending Los Angeles Center
04:11PM 34.0189 -118.3742 83° East 251 289 6,400 -720 Descending Los Angeles Center
04:12PM 34.0269 -118.2889 83° East 220 253 5,500 -1,008 Descending Los Angeles Center
04:13PM 34.0236 -118.2267 94° East 204 235 4,300 -1,016 Descending Los Angeles Center
04:14PM 33.9819 -118.2436 199° South 189 217 3,400 -871 Descending Los Angeles Center
04:15PM 33.9669 -118.2928 250° West 171 197 2,500 -968 Descending Los Angeles Center
04:16PM 33.9592 -118.3364 258° West 151 174 1,400 -919 Descending Los Angeles Center
04:17PM 33.9556 -118.3786 264° West 137 158 600 -581 Descending Los Angeles Center
04:18PM 33.9511 -118.4236 263° West 130 150 200 -387 Descending Los Angeles Center
04:20PM 33.9425 -118.4081 90° East  Level Estimated